createdAt,value
2023-04-16T00:00:37.292Z,101484.69
2023-04-16T00:03:04.172Z,101475.91
2023-04-16T00:05:30.841Z,101472.97
2023-04-16T00:07:57.224Z,101473.56
2023-04-16T00:10:23.683Z,101470.28
2023-04-16T00:12:50.041Z,101479.22
2023-04-16T00:15:16.377Z,101482.72
2023-04-16T00:17:42.794Z,101477.63
2023-04-16T00:20:09.766Z,101486.19
2023-04-16T00:22:36.139Z,101479.66
2023-04-16T00:25:02.485Z,101487.97
2023-04-16T00:27:28.918Z,101483.28
2023-04-16T00:29:55.390Z,101489.88
2023-04-16T00:32:21.813Z,101495.34
2023-04-16T00:34:48.220Z,101488.88
2023-04-16T00:37:14.623Z,101479.59
2023-04-16T00:39:40.964Z,101492.09
2023-04-16T00:42:07.328Z,101492.84
2023-04-16T00:44:36.552Z,101489.53
2023-04-16T00:47:03.373Z,101493.16
2023-04-16T00:49:31.006Z,101496.63
2023-04-16T00:51:57.616Z,101490.53
2023-04-16T00:54:25.291Z,101485.28
2023-04-16T00:56:51.839Z,101487.16
2023-04-16T00:59:18.561Z,101491.44
2023-04-16T01:01:44.954Z,101491.44
2023-04-16T01:04:11.530Z,101491.03
2023-04-16T01:06:38.010Z,101491.59
2023-04-16T01:09:05.564Z,101491.22
2023-04-16T01:11:32.048Z,101486.47
2023-04-16T01:13:58.492Z,101494.88
2023-04-16T01:16:26.663Z,101498.63
2023-04-16T01:18:53.099Z,101500.13
2023-04-16T01:21:19.482Z,101496.25
2023-04-16T01:23:45.904Z,101495.13
2023-04-16T01:26:12.336Z,101505.38
2023-04-16T01:28:38.757Z,101497.41
2023-04-16T01:31:05.267Z,101503.78
2023-04-16T01:33:31.704Z,101505.28
2023-04-16T01:35:58.039Z,101508.38
2023-04-16T01:38:24.466Z,101507.56
2023-04-16T01:40:55.474Z,101500.38
2023-04-16T01:43:21.849Z,101513.78
2023-04-16T01:45:48.258Z,101510.88
2023-04-16T01:48:14.648Z,101502.91
2023-04-16T01:50:41.569Z,101502.22
2023-04-16T01:53:09.550Z,101507.34
2023-04-16T01:55:36.145Z,101517.84
2023-04-16T01:58:02.526Z,101511.59
2023-04-16T02:00:28.986Z,101513.03
2023-04-16T02:02:55.724Z,101505.50
2023-04-16T02:05:22.291Z,101509.81
2023-04-16T02:07:48.648Z,101506.50
2023-04-16T02:10:15.168Z,101510.09
2023-04-16T02:12:41.565Z,101511.75
2023-04-16T02:15:08.346Z,101505.69
2023-04-16T02:17:34.775Z,101503.09
2023-04-16T02:20:03.333Z,101505.00
2023-04-16T02:22:29.748Z,101504.34
2023-04-16T02:24:56.071Z,101512.03
2023-04-16T02:27:22.441Z,101508.47
2023-04-16T02:29:48.804Z,101510.63
2023-04-16T02:32:15.283Z,101509.41
2023-04-16T02:34:42.950Z,101504.84
2023-04-16T02:37:09.305Z,101504.16
2023-04-16T02:39:35.711Z,101508.75
2023-04-16T02:42:02.654Z,101509.34
2023-04-16T02:44:29.240Z,101518.41
2023-04-16T02:46:55.583Z,101511.69
2023-04-16T02:49:21.945Z,101503.94
2023-04-16T02:51:48.336Z,101505.97
2023-04-16T02:54:14.684Z,101510.41
2023-04-16T02:56:41.011Z,101512.38
2023-04-16T02:59:07.539Z,101509.06
2023-04-16T03:01:34.202Z,101505.28
2023-04-16T03:04:00.626Z,101514.31
2023-04-16T03:06:27.038Z,101504.84
2023-04-16T03:08:53.413Z,101507.63
2023-04-16T03:11:20.334Z,101513.03
2023-04-16T03:13:46.704Z,101505.28
2023-04-16T03:16:13.043Z,101518.97
2023-04-16T03:18:39.403Z,101517.00
2023-04-16T03:21:06.213Z,101518.50
2023-04-16T03:23:32.620Z,101519.78
2023-04-16T03:25:59.035Z,101521.59
2023-04-16T03:28:26.130Z,101524.22
2023-04-16T03:30:53.567Z,101527.78
2023-04-16T03:33:20.817Z,101528.19
2023-04-16T03:35:47.248Z,101523.75
2023-04-16T03:38:13.675Z,101529.13
2023-04-16T03:40:40.061Z,101523.88
2023-04-16T03:43:06.567Z,101524.22
2023-04-16T03:45:32.889Z,101524.72
2023-04-16T03:47:59.327Z,101517.41
2023-04-16T03:50:25.717Z,101524.28
2023-04-16T03:52:52.064Z,101524.44
2023-04-16T03:55:18.420Z,101527.72
2023-04-16T03:57:44.866Z,101528.25
2023-04-16T04:00:11.757Z,101526.91
2023-04-16T04:02:38.309Z,101526.06
2023-04-16T04:05:05.118Z,101532.00
2023-04-16T04:07:31.591Z,101523.31
2023-04-16T04:09:58.048Z,101523.88
2023-04-16T04:12:24.433Z,101518.63
2023-04-16T04:14:50.754Z,101526.75
2023-04-16T04:17:17.141Z,101527.72
2023-04-16T04:19:54.266Z,101534.94
2023-04-16T04:22:26.607Z,101532.75
2023-04-16T04:24:52.947Z,101526.38
2023-04-16T04:27:19.313Z,101539.34
2023-04-16T04:29:46.142Z,101542.41
2023-04-16T04:32:12.519Z,101546.09
2023-04-16T04:34:38.896Z,101546.25
2023-04-16T04:37:05.620Z,101546.94
2023-04-16T04:39:32.006Z,101553.81
2023-04-16T04:41:58.413Z,101549.41
2023-04-16T04:44:24.743Z,101554.09
2023-04-16T04:46:51.112Z,101552.31
2023-04-16T04:49:17.510Z,101558.63
2023-04-16T04:51:43.945Z,101554.91
2023-04-16T04:54:10.450Z,101552.63
2023-04-16T04:56:36.872Z,101555.69
2023-04-16T04:59:03.272Z,101562.81
2023-04-16T05:01:29.709Z,101558.41
2023-04-16T05:03:56.231Z,101566.94
2023-04-16T05:06:22.594Z,101565.59
2023-04-16T05:08:48.952Z,101565.97
2023-04-16T05:11:15.766Z,101564.31
2023-04-16T05:13:42.121Z,101572.47
2023-04-16T05:16:08.479Z,101575.91
2023-04-16T05:18:34.893Z,101580.16
2023-04-16T05:21:01.244Z,101573.53
2023-04-16T05:23:27.808Z,101576.03
2023-04-16T05:25:54.202Z,101585.41
2023-04-16T05:28:20.635Z,101588.72
2023-04-16T05:30:47.085Z,101592.56
2023-04-16T05:33:13.523Z,101593.25
2023-04-16T05:35:39.947Z,101587.84
2023-04-16T05:38:06.287Z,101596.38
2023-04-16T05:40:32.735Z,101593.09
2023-04-16T05:42:59.132Z,101596.38
2023-04-16T05:45:27.427Z,101604.13
2023-04-16T05:47:54.462Z,101602.03
2023-04-16T05:50:20.896Z,101605.59
2023-04-16T05:52:47.236Z,101617.34
2023-04-16T05:55:13.666Z,101604.13
2023-04-16T05:57:40.309Z,101608.03
2023-04-16T06:00:08.979Z,101611.03
2023-04-16T06:02:35.583Z,101619.72
2023-04-16T06:05:02.197Z,101612.81
2023-04-16T06:07:28.582Z,101627.31
2023-04-16T06:09:55.024Z,101621.22
2023-04-16T06:12:21.404Z,101626.25
2023-04-16T06:14:47.762Z,101625.94
2023-04-16T06:17:14.169Z,101629.41
2023-04-16T06:19:40.699Z,101631.88
2023-04-16T06:22:07.461Z,101629.94
2023-04-16T06:24:33.991Z,101632.69
2023-04-16T06:27:00.690Z,101632.56
2023-04-16T06:29:33.664Z,101641.13
2023-04-16T06:32:04.003Z,101646.38
2023-04-16T06:34:30.694Z,101645.69
2023-04-16T06:36:57.021Z,101649.28
2023-04-16T06:39:23.388Z,101645.53
2023-04-16T06:41:49.912Z,101653.88
2023-04-16T06:44:16.344Z,101647.34
2023-04-16T06:46:42.788Z,101651.63
2023-04-16T06:49:09.412Z,101655.38
2023-04-16T06:51:36.091Z,101664.88
2023-04-16T06:54:02.415Z,101657.91
2023-04-16T06:56:28.769Z,101657.91
2023-04-16T06:58:57.016Z,101660.75
2023-04-16T07:01:23.639Z,101662.66
2023-04-16T07:03:50.772Z,101659.88
2023-04-16T07:06:17.409Z,101659.28
2023-04-16T07:08:43.805Z,101661.75
2023-04-16T07:11:10.251Z,101665.75
2023-04-16T07:13:36.610Z,101669.56
2023-04-16T07:16:03.042Z,101664.84
2023-04-16T07:18:29.448Z,101670.78
2023-04-16T07:20:56.009Z,101665.34
2023-04-16T07:23:22.371Z,101674.59
2023-04-16T07:25:48.780Z,101673.03
2023-04-16T07:28:17.491Z,101671.38
2023-04-16T07:30:43.954Z,101672.34
2023-04-16T07:33:10.596Z,101669.78
2023-04-16T07:35:37.013Z,101670.78
2023-04-16T07:38:03.421Z,101676.84
2023-04-16T07:40:29.850Z,101668.19
2023-04-16T07:42:56.386Z,101678.25
2023-04-16T07:45:23.512Z,101672.22
2023-04-16T07:47:49.931Z,101673.75
2023-04-16T07:50:16.474Z,101670.81
2023-04-16T07:52:43.675Z,101675.13
2023-04-16T07:55:10.073Z,101680.59
2023-04-16T07:57:37.046Z,101685.44
2023-04-16T08:00:07.081Z,101693.19
2023-04-16T08:02:33.642Z,101690.38
2023-04-16T08:05:00.458Z,101694.03
2023-04-16T08:07:27.030Z,101693.31
2023-04-16T08:09:54.094Z,101692.47
2023-04-16T08:12:21.114Z,101694.66
2023-04-16T08:14:47.847Z,101691.72
2023-04-16T08:17:17.242Z,101695.13
2023-04-16T08:19:47.259Z,101697.97
2023-04-16T08:22:13.777Z,101707.34
2023-04-16T08:24:40.178Z,101710.38
2023-04-16T08:27:17.845Z,101712.63
2023-04-16T08:29:45.423Z,101709.56
2023-04-16T08:32:11.917Z,101721.28
2023-04-16T08:34:38.464Z,101710.03
2023-04-16T08:37:05.102Z,101719.78
2023-04-16T08:39:31.601Z,101720.75
2023-04-16T08:41:58.914Z,101728.69
2023-04-16T08:44:32.372Z,101727.25
2023-04-16T08:46:59.378Z,101722.00
2023-04-16T08:49:27.186Z,101722.38
2023-04-16T08:51:57.270Z,101727.63
2023-04-16T08:54:56.773Z,101730.22
2023-04-16T08:57:25.749Z,101726.56
2023-04-16T08:59:56.063Z,101728.06
2023-04-16T09:02:23.350Z,101729.91
2023-04-16T09:04:51.201Z,101735.03
2023-04-16T09:07:21.022Z,101735.84
2023-04-16T09:09:49.833Z,101734.22
2023-04-16T09:12:17.711Z,101733.16
2023-04-16T09:14:49.603Z,101736.91
2023-04-16T09:17:17.200Z,101739.94
2023-04-16T09:19:44.492Z,101737.78
2023-04-16T09:22:11.872Z,101739.59
2023-04-16T09:24:41.951Z,101744.41
2023-04-16T09:27:08.811Z,101741.59
2023-04-16T09:29:36.277Z,101746.53
2023-04-16T09:32:08.137Z,101741.44
2023-04-16T09:34:36.054Z,101739.31
2023-04-16T09:37:15.828Z,101748.06
2023-04-16T09:39:54.076Z,101748.53
2023-04-16T09:42:25.376Z,101755.47
2023-04-16T09:44:52.963Z,101741.22
2023-04-16T09:47:19.556Z,101750.66
2023-04-16T09:49:47.085Z,101757.56
2023-04-16T09:52:22.205Z,101759.75
2023-04-16T09:54:50.275Z,101764.69
2023-04-16T09:57:21.960Z,101758.72
2023-04-16T10:00:05.795Z,101753.09
2023-04-16T10:02:33.150Z,101757.09
2023-04-16T10:05:01.699Z,101760.03
2023-04-16T10:07:29.435Z,101758.41
2023-04-16T10:09:56.022Z,101765.63
2023-04-16T10:12:22.510Z,101761.31
2023-04-16T10:14:50.483Z,101765.22
2023-04-16T10:17:17.620Z,101770.41
2023-04-16T10:19:44.377Z,101764.44
2023-04-16T10:22:11.327Z,101768.59
2023-04-16T10:24:38.628Z,101764.81
2023-04-16T10:27:04.990Z,101768.31
2023-04-16T10:29:32.823Z,101767.22
2023-04-16T10:31:59.845Z,101768.06
2023-04-16T10:34:27.047Z,101769.69
2023-04-16T10:36:54.933Z,101769.72
2023-04-16T10:39:23.904Z,101767.94
2023-04-16T10:42:06.112Z,101772.88
2023-04-16T10:44:32.908Z,101763.22
2023-04-16T10:46:59.486Z,101771.97
2023-04-16T10:49:27.067Z,101766.78
2023-04-16T10:52:04.623Z,101769.56
2023-04-16T10:54:32.020Z,101771.75
2023-04-16T10:57:04.314Z,101767.88
2023-04-16T10:59:33.569Z,101768.56
2023-04-16T11:02:01.846Z,101763.03
2023-04-16T11:04:33.253Z,101770.00
2023-04-16T11:07:13.764Z,101768.06
2023-04-16T11:09:59.320Z,101770.88
2023-04-16T11:12:42.665Z,101770.13
2023-04-16T11:15:13.160Z,101765.72
2023-04-16T11:17:46.657Z,101766.84
2023-04-16T11:20:19.987Z,101764.78
2023-04-16T11:22:48.980Z,101766.47
2023-04-16T11:25:23.101Z,101765.34
2023-04-16T11:27:50.319Z,101771.75
2023-04-16T11:30:18.793Z,101772.09
2023-04-16T11:32:45.580Z,101773.78
2023-04-16T11:35:16.173Z,101779.03
2023-04-16T11:37:43.139Z,101771.81
2023-04-16T11:40:10.425Z,101781.84
2023-04-16T11:42:40.338Z,101774.06
2023-04-16T11:45:08.428Z,101773.72
2023-04-16T11:47:52.053Z,101780.31
2023-04-16T11:50:25.516Z,101773.59
2023-04-16T11:52:54.011Z,101769.91
2023-04-16T11:55:21.228Z,101768.72
2023-04-16T11:57:48.211Z,101763.44
2023-04-16T12:00:15.564Z,101767.56
2023-04-16T12:02:49.647Z,101770.16
2023-04-16T12:05:34.813Z,101766.84
2023-04-16T12:08:06.391Z,101773.03
2023-04-16T12:10:35.508Z,101774.84
2023-04-16T12:13:12.939Z,101775.53
2023-04-16T12:15:56.950Z,101780.59
2023-04-16T12:18:26.834Z,101779.97
2023-04-16T12:20:53.541Z,101781.53
2023-04-16T12:23:30.489Z,101783.00
2023-04-16T12:26:02.373Z,101784.03
2023-04-16T12:28:34.269Z,101778.56
2023-04-16T12:31:01.995Z,101781.56
2023-04-16T12:33:28.725Z,101778.53
2023-04-16T12:35:55.191Z,101777.00
2023-04-16T12:38:24.070Z,101793.59
2023-04-16T12:40:51.034Z,101794.41
2023-04-16T12:43:17.860Z,101794.97
2023-04-16T12:45:44.587Z,101793.66
2023-04-16T12:48:11.476Z,101800.53
2023-04-16T12:50:39.606Z,101791.69
2023-04-16T12:53:06.212Z,101788.06
2023-04-16T12:55:32.612Z,101792.44
2023-04-16T12:57:58.996Z,101790.84
2023-04-16T13:00:25.428Z,101787.66
2023-04-16T13:02:51.942Z,101792.22
2023-04-16T13:05:19.252Z,101778.44
2023-04-16T13:07:46.022Z,101777.81
2023-04-16T13:10:12.815Z,101786.94
2023-04-16T13:12:39.173Z,101784.63
2023-04-16T13:15:05.923Z,101783.78
2023-04-16T13:17:32.306Z,101779.56
2023-04-16T13:19:58.715Z,101781.88
2023-04-16T13:22:25.159Z,101780.78
2023-04-16T13:24:51.707Z,101782.19
2023-04-16T13:27:18.189Z,101780.66
2023-04-16T13:29:44.798Z,101777.34
2023-04-16T13:32:13.618Z,101780.91
2023-04-16T13:34:40.260Z,101784.06
2023-04-16T13:37:06.760Z,101787.66
2023-04-16T13:39:33.628Z,101790.66
2023-04-16T13:42:00.277Z,101786.31
2023-04-16T13:44:26.651Z,101783.31
2023-04-16T13:46:53.190Z,101777.44
2023-04-16T13:49:19.627Z,101781.47
2023-04-16T13:51:46.014Z,101784.31
2023-04-16T13:54:12.366Z,101786.81
2023-04-16T13:56:39.382Z,101785.78
2023-04-16T13:59:05.917Z,101780.16
2023-04-16T14:01:32.598Z,101781.22
2023-04-16T14:04:00.192Z,101775.09
2023-04-16T14:06:26.963Z,101772.59
2023-04-16T14:08:53.318Z,101774.59
2023-04-16T14:11:19.727Z,101768.06
2023-04-16T14:13:46.713Z,101772.34
2023-04-16T14:16:13.884Z,101778.09
2023-04-16T14:18:42.220Z,101772.94
2023-04-16T14:21:09.054Z,101775.25
2023-04-16T14:23:35.544Z,101779.28
2023-04-16T14:26:01.917Z,101773.53
2023-04-16T14:28:28.358Z,101779.53
2023-04-16T14:30:54.740Z,101782.00
2023-04-16T14:33:21.216Z,101775.78
2023-04-16T14:35:47.745Z,101778.88
2023-04-16T14:38:14.087Z,101786.59
2023-04-16T14:40:40.602Z,101782.28
2023-04-16T14:43:07.069Z,101782.16
2023-04-16T14:45:33.475Z,101784.19
2023-04-16T14:47:59.919Z,101783.44
2023-04-16T14:50:26.377Z,101774.50
2023-04-16T14:52:54.465Z,101779.06
2023-04-16T14:55:21.353Z,101777.63
2023-04-16T14:57:47.749Z,101772.84
2023-04-16T15:00:17.553Z,101772.34
2023-04-16T15:02:44.726Z,101765.09
2023-04-16T15:05:11.379Z,101771.56
2023-04-16T15:07:37.789Z,101773.34
2023-04-16T15:10:04.659Z,101772.94
2023-04-16T15:12:31.213Z,101773.16
2023-04-16T15:14:57.620Z,101766.03
2023-04-16T15:17:24.076Z,101768.38
2023-04-16T15:19:52.104Z,101765.13
2023-04-16T15:22:18.497Z,101768.41
2023-04-16T15:24:45.086Z,101757.59
2023-04-16T15:27:12.394Z,101762.97
2023-04-16T15:29:38.751Z,101763.97
2023-04-16T15:32:06.841Z,101766.50
2023-04-16T15:34:33.209Z,101769.41
2023-04-16T15:36:59.569Z,101764.38
2023-04-16T15:39:25.987Z,101767.81
2023-04-16T15:44:22.002Z,101767.81
2023-04-16T15:46:48.487Z,101765.69
2023-04-16T15:49:14.947Z,101763.06
2023-04-16T15:51:41.427Z,101766.00
2023-04-16T15:54:07.874Z,101765.75
2023-04-16T15:56:34.355Z,101765.09
2023-04-16T15:59:03.810Z,101766.31
2023-04-16T16:01:31.081Z,101763.66
2023-04-16T16:03:57.654Z,101763.03
2023-04-16T16:06:24.449Z,101762.19
2023-04-16T16:08:51.085Z,101765.47
2023-04-16T16:11:17.551Z,101760.63
2023-04-16T16:13:43.990Z,101768.28
2023-04-16T16:16:10.615Z,101765.53
2023-04-16T16:18:37.593Z,101769.84
2023-04-16T16:21:03.993Z,101772.94
2023-04-16T16:23:30.371Z,101772.22
2023-04-16T16:25:56.863Z,101781.53
2023-04-16T16:28:24.907Z,101778.59
2023-04-16T16:30:53.754Z,101783.69
2023-04-16T16:33:20.709Z,101782.16
2023-04-16T16:35:47.233Z,101783.69
2023-04-16T16:38:13.627Z,101782.22
2023-04-16T16:40:39.980Z,101785.78
2023-04-16T16:43:06.422Z,101788.75
2023-04-16T16:45:32.808Z,101789.47
2023-04-16T16:47:59.276Z,101795.72
2023-04-16T16:50:25.673Z,101784.91
2023-04-16T16:52:52.079Z,101802.25
2023-04-16T16:55:18.959Z,101796.88
2023-04-16T16:57:45.641Z,101800.28
2023-04-16T17:00:16.191Z,101804.78
2023-04-16T17:02:43.288Z,101801.50
2023-04-16T17:05:09.978Z,101801.50
2023-04-16T17:07:36.404Z,101809.31
2023-04-16T17:10:05.240Z,101803.53
2023-04-16T17:12:33.087Z,101806.34
2023-04-16T17:14:59.453Z,101805.66
2023-04-16T17:17:26.798Z,101810.16
2023-04-16T17:19:53.851Z,101811.81
2023-04-16T17:22:20.321Z,101810.84
2023-04-16T17:24:47.117Z,101815.47
2023-04-16T17:27:13.509Z,101811.19
2023-04-16T17:29:39.827Z,101811.53
2023-04-16T17:32:06.316Z,101816.81
2023-04-16T17:34:32.652Z,101808.88
2023-04-16T17:36:58.988Z,101814.00
2023-04-16T17:39:25.495Z,101814.00
2023-04-16T17:41:54.660Z,101825.59
2023-04-16T17:44:22.870Z,101823.13
2023-04-16T17:46:49.250Z,101824.75
2023-04-16T17:49:15.596Z,101815.03
2023-04-16T17:51:44.364Z,101828.25
2023-04-16T17:54:10.904Z,101824.94
2023-04-16T17:56:37.680Z,101827.75
2023-04-16T17:59:04.931Z,101830.56
2023-04-16T18:01:31.477Z,101829.72
2023-04-16T18:03:58.092Z,101829.72
2023-04-16T18:06:24.623Z,101830.38
2023-04-16T18:08:50.959Z,101834.50
2023-04-16T18:11:17.425Z,101828.91
2023-04-16T18:13:43.918Z,101838.78
2023-04-16T18:16:16.866Z,101834.34
2023-04-16T18:18:44.356Z,101839.59
2023-04-16T18:21:11.113Z,101849.63
2023-04-16T18:23:37.555Z,101844.53
2023-04-16T18:26:04.205Z,101841.41
2023-04-16T18:28:30.634Z,101850.66
2023-04-16T18:30:58.914Z,101844.53
2023-04-16T18:33:38.854Z,101850.13
2023-04-16T18:36:11.703Z,101853.13
2023-04-16T18:38:46.394Z,101847.50
2023-04-16T18:41:20.786Z,101846.66
2023-04-16T18:43:47.689Z,101857.06
2023-04-16T18:46:14.705Z,101855.06
2023-04-16T18:48:41.741Z,101857.88
2023-04-16T18:51:08.172Z,101864.63
2023-04-16T18:53:34.619Z,101856.88
2023-04-16T18:56:01.060Z,101863.31
2023-04-16T18:58:27.960Z,101867.09
2023-04-16T19:00:58.289Z,101871.72
2023-04-16T19:03:27.269Z,101872.19
2023-04-16T19:05:53.851Z,101871.72
2023-04-16T19:08:20.316Z,101872.19
2023-04-16T19:10:48.129Z,101873.03
2023-04-16T19:13:14.659Z,101876.47
2023-04-16T19:15:41.284Z,101876.34
2023-04-16T19:18:07.868Z,101876.63
2023-04-16T19:20:37.734Z,101874.34
2023-04-16T19:23:05.603Z,101877.09
2023-04-16T19:25:32.676Z,101881.25
2023-04-16T19:27:59.217Z,101888.50
2023-04-16T19:30:26.283Z,101885.50
2023-04-16T19:32:55.195Z,101879.25
2023-04-16T19:35:22.257Z,101889.28
2023-04-16T19:37:48.728Z,101879.75
2023-04-16T19:40:15.281Z,101882.03
2023-04-16T19:42:41.870Z,101883.34
2023-04-16T19:45:08.550Z,101881.06
2023-04-16T19:47:34.922Z,101877.75
2023-04-16T19:50:01.448Z,101884.34
2023-04-16T19:52:27.914Z,101889.44
2023-04-16T19:54:54.293Z,101884.34
2023-04-16T19:57:20.654Z,101895.03
2023-04-16T19:59:46.998Z,101898.97
2023-04-16T20:02:13.454Z,101899.44
2023-04-16T20:04:39.811Z,101886.59
2023-04-16T20:07:06.333Z,101890.19
2023-04-16T20:09:32.715Z,101897.63
2023-04-16T20:11:59.036Z,101895.47
2023-04-16T20:14:25.568Z,101898.28
2023-04-16T20:16:52.042Z,101901.59
2023-04-16T20:19:19.481Z,101904.88
2023-04-16T20:21:46.068Z,101902.72
2023-04-16T20:24:12.560Z,101898.41
2023-04-16T20:26:38.960Z,101901.75
2023-04-16T20:29:05.290Z,101902.72
2023-04-16T20:31:31.718Z,101907.16
2023-04-16T20:33:58.145Z,101915.22
2023-04-16T20:36:24.504Z,101901.88
2023-04-16T20:38:53.767Z,101909.13
2023-04-16T20:41:21.232Z,101894.31
2023-04-16T20:43:50.163Z,101908.75
2023-04-16T20:46:17.853Z,101900.53
2023-04-16T20:48:44.432Z,101904.50
2023-04-16T20:51:10.793Z,101905.25
2023-04-16T20:53:37.396Z,101904.59
2023-04-16T20:56:03.976Z,101910.41
2023-04-16T20:58:30.644Z,101920.88
2023-04-16T21:00:57.557Z,101909.66
2023-04-16T21:03:24.856Z,101907.19
2023-04-16T21:05:53.312Z,101903.91
2023-04-16T21:08:20.964Z,101910.63
2023-04-16T21:10:47.930Z,101906.50
2023-04-16T21:13:14.860Z,101909.13
2023-04-16T21:15:43.067Z,101903.22
2023-04-16T21:18:10.337Z,101904.34
2023-04-16T21:20:37.216Z,101907.66
2023-04-16T21:23:04.447Z,101905.56
2023-04-16T21:25:31.102Z,101897.78
2023-04-16T21:27:57.714Z,101896.81
2023-04-16T21:30:24.077Z,101902.94
2023-04-16T21:32:50.644Z,101900.13
2023-04-16T21:35:17.240Z,101897.78
2023-04-16T21:37:43.563Z,101902.09
2023-04-16T21:40:10.265Z,101898.63
2023-04-16T21:42:41.965Z,101905.19
2023-04-16T21:45:09.603Z,101903.38
2023-04-16T21:47:36.821Z,101907.47
2023-04-16T21:50:03.954Z,101901.22
2023-04-16T21:52:32.708Z,101906.16
2023-04-16T21:55:00.065Z,101901.53
2023-04-16T21:57:26.403Z,101907.91
2023-04-16T21:59:52.768Z,101901.53
2023-04-16T22:02:19.321Z,101901.84
2023-04-16T22:04:45.877Z,101907.72
2023-04-16T22:07:12.248Z,101908.84
2023-04-16T22:09:38.898Z,101904.06
2023-04-16T22:12:11.956Z,101901.72
2023-04-16T22:14:44.068Z,101909.16
2023-04-16T22:17:12.822Z,101910.81
2023-04-16T22:19:39.434Z,101906.38
2023-04-16T22:22:05.804Z,101900.94
2023-04-16T22:24:32.261Z,101905.03
2023-04-16T22:26:58.876Z,101908.66
2023-04-16T22:29:25.354Z,101902.69
2023-04-16T22:31:52.200Z,101902.69
2023-04-16T22:34:18.692Z,101905.75
2023-04-16T22:36:45.196Z,101901.22
2023-04-16T22:39:11.710Z,101902.81
2023-04-16T22:41:38.211Z,101902.69
2023-04-16T22:44:04.735Z,101898.72
2023-04-16T22:46:31.317Z,101899.09
2023-04-16T22:48:57.903Z,101902.34
2023-04-16T22:51:24.512Z,101898.66
2023-04-16T22:53:51.780Z,101900.69
2023-04-16T22:56:21.346Z,101898.88
2023-04-16T22:58:50.987Z,101898.72
2023-04-16T23:01:17.464Z,101896.75
2023-04-16T23:03:44.032Z,101894.75
2023-04-16T23:06:10.523Z,101899.34
2023-04-16T23:08:36.893Z,101898.88
2023-04-16T23:11:03.415Z,101900.84
2023-04-16T23:13:29.824Z,101902.34
2023-04-16T23:15:56.234Z,101895.59
2023-04-16T23:18:22.878Z,101899.50
2023-04-16T23:20:52.846Z,101900.69
2023-04-16T23:23:19.678Z,101905.28
2023-04-16T23:25:46.092Z,101905.00
2023-04-16T23:28:12.628Z,101902.81
2023-04-16T23:30:39.379Z,101901.00
2023-04-16T23:33:05.935Z,101905.81
2023-04-16T23:35:32.342Z,101900.22
2023-04-16T23:37:58.796Z,101902.28
2023-04-16T23:40:25.610Z,101901.97
2023-04-16T23:42:52.121Z,101908.75
2023-04-16T23:45:18.478Z,101905.94
2023-04-16T23:47:45.160Z,101901.69
2023-04-16T23:50:11.716Z,101903.94
2023-04-16T23:52:38.085Z,101908.06
2023-04-16T23:55:04.924Z,101903.31
2023-04-16T23:57:31.290Z,101902.66
2023-04-16T23:59:57.627Z,101907.28
